ROA weather

Roanoke–Blacksburg Regional Airport
Roanoke, Virginia, United States

Public forecast

Using degrees Fahrenheit for public forecast. Weather courtesy of forecast.io.

Current aviation weather report (METAR) for Roanoke–Blacksburg Regional Airport

Retrieved 2020/06/05 02:54 UTC (10 minutes ago):

KROA 050254Z 23005KT 10SM SCT140 26/20 A2995 RMK AO2 SLP128 T02560200 53013

Aviation forecast (TAF) for Roanoke–Blacksburg Regional Airport

Retrieved 2020-06-05 00:03 UTC (3 hours ago):

TAF KROA 050000Z 0500/0524 21005KT P6SM VCTS SCT045CB BKN150 TEMPO 0500/0504 4SM -SHRA BKN045 FM050600 VRB03KT P6SM BKN200 FM051200 VRB03KT P6SM FEW070 FM051800 20007KT P6SM VCTS BKN050CB FM052000 VRB15KT 5SM TSRA OVC040CB FM052200 21005KT P6SM VCSH SCT045 BKN150